KCRG/CRG METAR and TAF weather

Enter ICAO airport designator
Station Type Date Time Source
KCRG METAR 2022/01/26 07:53 UTC NOAA

KCRG 260753Z AUTO 33004KT 10SM OVC038 11/09 A3006 RMK AO2 SLP180 T01110094


Station Type Date Time Source
KCRG Decoded METAR 2022/01/26 07:53 UTC NOAA

JACKSONVILLE CRAIG MUN, FL, United States (KCRG) 30-20N 81-31W 13M
Jan 26, 2022 - 02:53 AM EST / 2022.01.26 0753 UTC
Wind: from the NNW (330 degrees) at 5 MPH (4 KT):0
Visibility: 10 mile(s):0
Sky conditions: overcast
Temperature: 52.0 F (11.1 C)
Dew Point: 48.9 F (9.4 C)
Relative Humidity: 89%
Pressure (altimeter): 30.06 in. Hg (1017 hPa)
ob: KCRG 260753Z AUTO 33004KT 10SM OVC038 11/09 A3006 RMK AO2 SLP180 T01110094
cycle: 8

Station Type Date Time Source
KCRG TAF 2022/01/26 06:22 UTC NOAA

TAF KCRG 260520Z 2606/2706 VRB02KT P6SM -SHRA SCT025 OVC040
FM261700 03008KT P6SM SCT030 OVC050
FM262200 02007KT P6SM SCT015 OVC025
FM270400 02007KT P6SM OVC012

Example: see airport list